Libertytown, Maryland
Current Conditions -  °F | °C
As of 1:45 PM on Thursday 18 Dec 2014 (Local Time) from KFDK Reporting Station
Overcast Overcast  
Wind Chill: 31°   Ceiling: 3600
Heat Index: 39°   Visibility: 10mi
Dew Point: 19°   Wind: 15mph
Humidity: 45%   Direction: 310°NW
Pressure: 30.14"   Gusts: 23mph
Location:  39.48°N, 77.23°W
Report Text: KFDK 181845Z 31013G20KT 10SM OVC036 04/M07 A3014
Loading
Personal Weather Stations






























Interactive Weather Map New forecast layout! Learn more

10-Day Weather Forecast

Advertisements
Track Severe Weather on mobile